Time,TemperatureF,DewpointF,PressureIn,WindDirection,WindDirectionDegrees,WindSpeedMPH,WindSpeedGustMPH,Humidity,HourlyPrecipIn,Conditions,Clouds,dailyrainin,SoftwareType,DateUTC
2013-02-20 00:01:00,32.0,31.0,-100.00,WSW,245,8.0,15.0,96,-99.99,,,-99.99,,2013-02-20 08:01:00,
2013-02-20 00:11:00,32.0,31.0,-100.00,SW,234,10.0,18.0,96,-99.99,,,-99.99,,2013-02-20 08:11:00,
2013-02-20 00:21:00,32.0,31.0,-100.00,SW,219,12.0,20.0,96,-99.99,,,-99.99,,2013-02-20 08:21:00,
2013-02-20 00:31:00,32.0,31.0,-100.00,SW,219,12.0,20.0,96,-99.99,,,-99.99,,2013-02-20 08:31:00,
2013-02-20 00:41:00,33.0,32.0,-100.00,South,188,6.0,10.0,96,-99.99,,,-99.99,,2013-02-20 08:41:00,
2013-02-20 00:52:00,33.0,32.0,-100.00,SSW,198,5.0,11.0,96,-99.99,,,-99.99,,2013-02-20 08:52:00,
2013-02-20 01:01:00,33.0,32.0,-100.00,SW,231,6.0,18.0,97,-99.99,,,-99.99,,2013-02-20 09:01:00,
2013-02-20 01:11:00,34.0,33.0,-100.00,WSW,238,16.0,26.0,97,-99.99,,,-99.99,,2013-02-20 09:11:00,
2013-02-20 01:21:00,34.0,33.0,-100.00,WSW,240,15.0,23.0,97,-99.99,,,-99.99,,2013-02-20 09:21:00,
2013-02-20 01:31:00,33.0,32.0,-100.00,WSW,250,11.0,18.0,97,-99.99,,,-99.99,,2013-02-20 09:31:00,
2013-02-20 01:41:00,34.0,33.0,-100.00,West,272,10.0,16.0,97,-99.99,,,-99.99,,2013-02-20 09:41:00,
2013-02-20 01:51:00,35.0,34.0,-100.00,WSW,256,12.0,23.0,97,-99.99,,,-99.99,,2013-02-20 09:51:00,
2013-02-20 02:01:00,35.0,34.0,-100.00,West,265,16.0,30.0,97,-99.99,,,-99.99,,2013-02-20 10:01:00,
2013-02-20 02:12:00,35.0,34.0,-100.00,West,272,20.0,31.0,97,-99.99,,,-99.99,,2013-02-20 10:12:00,
2013-02-20 02:21:00,35.0,34.0,-100.00,West,276,17.0,28.0,97,-99.99,,,-99.99,,2013-02-20 10:21:00,
2013-02-20 02:31:00,34.0,33.0,-100.00,WSW,258,16.0,31.0,97,-99.99,,,-99.99,,2013-02-20 10:31:00,
2013-02-20 02:41:00,34.0,33.0,-100.00,West,264,18.0,32.0,97,-99.99,,,-99.99,,2013-02-20 10:41:00,
2013-02-20 02:51:00,34.0,33.0,-100.00,WSW,257,20.0,33.0,97,-99.99,,,-99.99,,2013-02-20 10:51:00,
2013-02-20 03:01:00,33.0,32.0,-100.00,West,259,18.0,29.0,97,-99.99,,,-99.99,,2013-02-20 11:01:00,
2013-02-20 03:11:00,32.0,31.0,-100.00,West,266,17.0,29.0,97,-99.99,,,-99.99,,2013-02-20 11:11:00,
2013-02-20 03:21:00,33.0,32.0,-100.00,West,268,16.0,24.0,97,-99.99,,,-99.99,,2013-02-20 11:21:00,
2013-02-20 03:31:00,33.0,32.0,-100.00,West,264,14.0,31.0,97,-99.99,,,-99.99,,2013-02-20 11:31:00,
2013-02-20 03:41:00,34.0,33.0,-100.00,West,263,19.0,33.0,97,-99.99,,,-99.99,,2013-02-20 11:41:00,
2013-02-20 03:52:00,34.0,33.0,-100.00,West,259,21.0,32.0,97,-99.99,,,-99.99,,2013-02-20 11:52:00,
2013-02-20 04:01:00,33.0,32.0,-100.00,WSW,258,18.0,29.0,97,-99.99,,,-99.99,,2013-02-20 12:01:00,
2013-02-20 04:11:00,33.0,32.0,-100.00,WSW,258,19.0,37.0,97,-99.99,,,-99.99,,2013-02-20 12:11:00,
2013-02-20 04:21:00,33.0,32.0,-100.00,West,263,21.0,31.0,97,-99.99,,,-99.99,,2013-02-20 12:21:00,
2013-02-20 04:31:00,33.0,32.0,-100.00,West,264,20.0,30.0,97,-99.99,,,-99.99,,2013-02-20 12:31:00,
2013-02-20 04:42:00,33.0,32.0,-100.00,WSW,258,18.0,27.0,97,-99.99,,,-99.99,,2013-02-20 12:42:00,
2013-02-20 04:52:00,33.0,32.0,-100.00,West,263,17.0,26.0,97,-99.99,,,-99.99,,2013-02-20 12:52:00,
2013-02-20 05:01:00,32.0,31.0,-100.00,West,263,16.0,24.0,97,-99.99,,,-99.99,,2013-02-20 13:01:00,
2013-02-20 05:11:00,32.0,31.0,-100.00,West,260,16.0,27.0,96,-99.99,,,-99.99,,2013-02-20 13:11:00,
2013-02-20 05:22:00,32.0,31.0,-100.00,West,259,14.0,27.0,96,-99.99,,,-99.99,,2013-02-20 13:22:00,
2013-02-20 05:31:00,32.0,31.0,-100.00,WSW,258,12.0,21.0,95,-99.99,,,-99.99,,2013-02-20 13:31:00,
2013-02-20 05:42:00,32.0,31.0,-100.00,WSW,258,12.0,21.0,95,-99.99,,,-99.99,,2013-02-20 13:42:00,
2013-02-20 05:51:00,32.0,31.0,-100.00,WSW,258,12.0,21.0,95,-99.99,,,-99.99,,2013-02-20 13:51:00,
2013-02-20 06:01:00,31.0,29.0,-100.00,West,266,17.0,27.0,94,-99.99,,,-99.99,,2013-02-20 14:01:00,
2013-02-20 06:11:00,31.0,29.0,-100.00,West,263,13.0,20.0,94,-99.99,,,-99.99,,2013-02-20 14:11:00,
2013-02-20 06:21:00,32.0,31.0,-100.00,West,262,14.0,23.0,95,-99.99,,,-99.99,,2013-02-20 14:21:00,
2013-02-20 06:32:00,32.0,31.0,-100.00,West,259,11.0,17.0,95,-99.99,,,-99.99,,2013-02-20 14:32:00,
2013-02-20 06:42:00,32.0,31.0,-100.00,West,261,15.0,25.0,95,-99.99,,,-99.99,,2013-02-20 14:42:00,
2013-02-20 06:52:00,32.0,30.0,-100.00,West,268,13.0,22.0,94,-99.99,,,-99.99,,2013-02-20 14:52:00,
2013-02-20 07:01:00,32.0,30.0,-100.00,West,262,15.0,25.0,94,-99.99,,,-99.99,,2013-02-20 15:01:00,
2013-02-20 07:11:00,32.0,30.0,-100.00,West,260,15.0,22.0,94,-99.99,,,-99.99,,2013-02-20 15:11:00,
2013-02-20 07:22:00,32.0,30.0,-100.00,WSW,258,13.0,21.0,94,-99.99,,,-99.99,,2013-02-20 15:22:00,
2013-02-20 07:31:00,32.0,30.0,-100.00,WSW,258,16.0,28.0,94,-99.99,,,-99.99,,2013-02-20 15:31:00,
2013-02-20 07:41:00,33.0,31.0,-100.00,West,264,15.0,25.0,93,-99.99,,,-99.99,,2013-02-20 15:41:00,
2013-02-20 07:51:00,32.0,30.0,-100.00,West,272,12.0,19.0,93,-99.99,,,-99.99,,2013-02-20 15:51:00,
2013-02-20 08:01:00,32.0,30.0,-100.00,WNW,289,11.0,20.0,94,-99.99,,,-99.99,,2013-02-20 16:01:00,
2013-02-20 08:11:00,31.0,30.0,-100.00,WNW,288,12.0,20.0,95,-99.99,,,-99.99,,2013-02-20 16:11:00,
2013-02-20 08:21:00,31.0,30.0,-100.00,West,278,10.0,19.0,95,-99.99,,,-99.99,,2013-02-20 16:21:00,
2013-02-20 08:32:00,31.0,30.0,-100.00,West,273,11.0,19.0,96,-99.99,,,-99.99,,2013-02-20 16:32:00,
2013-02-20 08:41:00,31.0,30.0,-100.00,West,277,8.0,12.0,96,-99.99,,,-99.99,,2013-02-20 16:41:00,
2013-02-20 08:51:00,31.0,30.0,-100.00,West,280,8.0,13.0,96,-99.99,,,-99.99,,2013-02-20 16:51:00,
2013-02-20 09:01:00,31.0,30.0,-100.00,West,280,8.0,13.0,96,-99.99,,,-99.99,,2013-02-20 17:01:00,
2013-02-20 09:11:00,32.0,31.0,-100.00,WNW,285,6.0,15.0,96,-99.99,,,-99.99,,2013-02-20 17:11:00,
2013-02-20 09:21:00,32.0,31.0,-100.00,WNW,288,7.0,13.0,96,-99.99,,,-99.99,,2013-02-20 17:21:00,
2013-02-20 09:32:00,32.0,31.0,-100.00,WNW,296,8.0,17.0,96,-99.99,,,-99.99,,2013-02-20 17:32:00,
2013-02-20 09:41:00,33.0,32.0,-100.00,West,274,6.0,13.0,95,-99.99,,,-99.99,,2013-02-20 17:41:00,
2013-02-20 09:52:00,33.0,31.0,-100.00,West,268,8.0,12.0,91,-99.99,,,-99.99,,2013-02-20 17:52:00,
2013-02-20 10:02:00,34.0,31.0,-100.00,West,266,10.0,15.0,88,-99.99,,,-99.99,,2013-02-20 18:02:00,
2013-02-20 10:11:00,33.0,30.0,-100.00,West,277,9.0,14.0,87,-99.99,,,-99.99,,2013-02-20 18:11:00,
2013-02-20 10:21:00,34.0,30.0,-100.00,West,268,7.0,12.0,86,-99.99,,,-99.99,,2013-02-20 18:21:00,
2013-02-20 10:31:00,34.0,30.0,-100.00,WSW,258,7.0,13.0,84,-99.99,,,-99.99,,2013-02-20 18:31:00,
2013-02-20 10:41:00,35.0,30.0,-100.00,WSW,252,8.0,13.0,82,-99.99,,,-99.99,,2013-02-20 18:41:00,
2013-02-20 10:51:00,34.0,28.0,-100.00,West,274,7.0,14.0,79,-99.99,,,-99.99,,2013-02-20 18:51:00,
2013-02-20 11:01:00,34.0,28.0,-100.00,West,274,7.0,14.0,79,-99.99,,,-99.99,,2013-02-20 19:01:00,
2013-02-20 11:11:00,35.0,27.0,-100.00,West,272,6.0,11.0,72,-99.99,,,-99.99,,2013-02-20 19:11:00,
2013-02-20 11:21:00,35.0,27.0,-100.00,West,280,6.0,9.0,71,-99.99,,,-99.99,,2013-02-20 19:21:00,
2013-02-20 11:31:00,36.0,26.0,-100.00,WNW,289,8.0,15.0,66,-99.99,,,-99.99,,2013-02-20 19:31:00,
2013-02-20 11:41:00,36.0,26.0,-100.00,WNW,289,8.0,15.0,66,-99.99,,,-99.99,,2013-02-20 19:41:00,
2013-02-20 11:51:00,36.0,25.0,-100.00,WNW,285,7.0,12.0,64,-99.99,,,-99.99,,2013-02-20 19:51:00,
2013-02-20 12:01:00,36.0,25.0,-100.00,WNW,285,7.0,12.0,64,-99.99,,,-99.99,,2013-02-20 20:01:00,
2013-02-20 12:11:00,36.0,23.0,-100.00,West,271,9.0,13.0,59,-99.99,,,-99.99,,2013-02-20 20:11:00,
2013-02-20 12:21:00,36.0,23.0,-100.00,WNW,282,8.0,13.0,59,-99.99,,,-99.99,,2013-02-20 20:21:00,
2013-02-20 12:31:00,37.0,24.0,-100.00,WNW,286,7.0,12.0,58,-99.99,,,-99.99,,2013-02-20 20:31:00,
2013-02-20 12:41:00,38.0,25.0,-100.00,West,270,4.0,8.0,59,-99.99,,,-99.99,,2013-02-20 20:41:00,
2013-02-20 12:51:00,38.0,25.0,-100.00,West,268,6.0,11.0,60,-99.99,,,-99.99,,2013-02-20 20:51:00,
2013-02-20 13:01:00,38.0,25.0,-100.00,West,271,7.0,12.0,60,-99.99,,,-99.99,,2013-02-20 21:01:00,
2013-02-20 13:11:00,38.0,25.0,-100.00,WNW,284,7.0,13.0,59,-99.99,,,-99.99,,2013-02-20 21:11:00,
2013-02-20 13:21:00,39.0,25.0,-100.00,WNW,288,6.0,13.0,57,-99.99,,,-99.99,,2013-02-20 21:21:00,
2013-02-20 13:31:00,39.0,25.0,-100.00,West,280,7.0,13.0,56,-99.99,,,-99.99,,2013-02-20 21:31:00,
2013-02-20 13:41:00,39.0,24.0,-100.00,WNW,282,8.0,15.0,55,-99.99,,,-99.99,,2013-02-20 21:41:00,
2013-02-20 13:51:00,40.0,26.0,-100.00,West,274,9.0,15.0,56,-99.99,,,-99.99,,2013-02-20 21:51:00,
2013-02-20 14:01:00,40.0,26.0,-100.00,West,274,9.0,15.0,56,-99.99,,,-99.99,,2013-02-20 22:01:00,
2013-02-20 14:11:00,40.0,27.0,-100.00,WNW,285,7.0,13.0,59,-99.99,,,-99.99,,2013-02-20 22:11:00,
2013-02-20 14:21:00,40.0,27.0,-100.00,WNW,285,7.0,13.0,59,-99.99,,,-99.99,,2013-02-20 22:21:00,
2013-02-20 14:31:00,41.0,28.0,-100.00,WNW,294,7.0,11.0,59,-99.99,,,-99.99,,2013-02-20 22:31:00,
2013-02-20 14:41:00,40.0,28.0,-100.00,WNW,284,6.0,11.0,61,-99.99,,,-99.99,,2013-02-20 22:41:00,
2013-02-20 14:51:00,40.0,27.0,-100.00,WNW,282,8.0,16.0,60,-99.99,,,-99.99,,2013-02-20 22:51:00,
2013-02-20 15:01:00,40.0,27.0,-100.00,West,276,7.0,12.0,60,-99.99,,,-99.99,,2013-02-20 23:01:00,
2013-02-20 15:12:00,40.0,28.0,-100.00,West,281,8.0,16.0,61,-99.99,,,-99.99,,2013-02-20 23:12:00,
2013-02-20 15:22:00,41.0,28.0,-100.00,West,269,7.0,14.0,60,-99.99,,,-99.99,,2013-02-20 23:22:00,
2013-02-20 15:31:00,40.0,28.0,-100.00,West,261,8.0,15.0,61,-99.99,,,-99.99,,2013-02-20 23:31:00,
2013-02-20 15:42:00,40.0,28.0,-100.00,WSW,239,8.0,14.0,63,-99.99,,,-99.99,,2013-02-20 23:42:00,
2013-02-20 15:52:00,41.0,29.0,-100.00,West,271,8.0,12.0,62,-99.99,,,-99.99,,2013-02-20 23:52:00,
2013-02-20 16:02:00,41.0,29.0,-100.00,WSW,254,10.0,16.0,62,-99.99,,,-99.99,,2013-02-21 00:02:00,
2013-02-20 16:11:00,40.0,28.0,-100.00,SW,230,10.0,16.0,63,-99.99,,,-99.99,,2013-02-21 00:11:00,
2013-02-20 16:21:00,41.0,29.0,-100.00,SW,234,9.0,16.0,63,-99.99,,,-99.99,,2013-02-21 00:21:00,
2013-02-20 16:31:00,40.0,29.0,-100.00,West,266,8.0,13.0,64,-99.99,,,-99.99,,2013-02-21 00:31:00,
2013-02-20 16:41:00,40.0,29.0,-100.00,West,266,8.0,13.0,64,-99.99,,,-99.99,,2013-02-21 00:41:00,
2013-02-20 16:52:00,40.0,29.0,-100.00,West,266,8.0,13.0,64,-99.99,,,-99.99,,2013-02-21 00:52:00,
2013-02-20 17:01:00,40.0,29.0,-100.00,West,266,8.0,13.0,64,-99.99,,,-99.99,,2013-02-21 01:01:00,
2013-02-20 17:11:00,40.0,30.0,-100.00,WSW,243,8.0,13.0,67,-99.99,,,-99.99,,2013-02-21 01:11:00,
2013-02-20 17:21:00,40.0,30.0,-100.00,WSW,243,10.0,17.0,67,-99.99,,,-99.99,,2013-02-21 01:21:00,
2013-02-20 17:32:00,40.0,30.0,-100.00,SW,233,9.0,16.0,66,-99.99,,,-99.99,,2013-02-21 01:32:00,
2013-02-20 17:41:00,40.0,29.0,-100.00,WSW,238,8.0,13.0,65,-99.99,,,-99.99,,2013-02-21 01:41:00,
2013-02-20 17:51:00,39.0,28.0,-100.00,WSW,237,10.0,15.0,65,-99.99,,,-99.99,,2013-02-21 01:51:00,
2013-02-20 18:01:00,39.0,29.0,-100.00,WSW,245,7.0,10.0,66,-99.99,,,-99.99,,2013-02-21 02:01:00,
2013-02-20 18:11:00,38.0,28.0,-100.00,WSW,245,6.0,10.0,68,-99.99,,,-99.99,,2013-02-21 02:11:00,
2013-02-20 18:21:00,38.0,29.0,-100.00,SW,233,6.0,10.0,71,-99.99,,,-99.99,,2013-02-21 02:21:00,
2013-02-20 18:32:00,38.0,30.0,-100.00,SSW,206,5.0,9.0,72,-99.99,,,-99.99,,2013-02-21 02:32:00,
2013-02-20 18:42:00,38.0,30.0,-100.00,SSW,206,5.0,9.0,72,-99.99,,,-99.99,,2013-02-21 02:42:00,
2013-02-20 18:51:00,38.0,30.0,-100.00,SSW,206,5.0,9.0,72,-99.99,,,-99.99,,2013-02-21 02:51:00,
2013-02-20 19:01:00,37.0,29.0,-100.00,SW,231,6.0,10.0,73,-99.99,,,-99.99,,2013-02-21 03:01:00,
2013-02-20 19:11:00,37.0,29.0,-100.00,WSW,238,4.0,6.0,74,-99.99,,,-99.99,,2013-02-21 03:11:00,
2013-02-20 19:21:00,37.0,30.0,-100.00,SW,225,4.0,6.0,75,-99.99,,,-99.99,,2013-02-21 03:21:00,
2013-02-20 19:31:00,37.0,30.0,-100.00,SW,214,3.0,4.0,75,-99.99,,,-99.99,,2013-02-21 03:31:00,
2013-02-20 19:41:00,37.0,30.0,-100.00,SW,224,4.0,7.0,76,-99.99,,,-99.99,,2013-02-21 03:41:00,
2013-02-20 19:51:00,36.0,30.0,-100.00,SSW,195,2.0,4.0,78,-99.99,,,-99.99,,2013-02-21 03:51:00,
2013-02-20 20:01:00,36.0,30.0,-100.00,South,178,2.0,4.0,80,-99.99,,,-99.99,,2013-02-21 04:01:00,
2013-02-20 20:11:00,36.0,31.0,-100.00,SE,137,4.0,6.0,82,-99.99,,,-99.99,,2013-02-21 04:11:00,
2013-02-20 20:21:00,35.0,30.0,-100.00,SE,124,5.0,6.0,83,-99.99,,,-99.99,,2013-02-21 04:21:00,
2013-02-20 20:31:00,35.0,31.0,-100.00,SE,127,4.0,4.0,84,-99.99,,,-99.99,,2013-02-21 04:31:00,
2013-02-20 20:41:00,35.0,30.0,-100.00,ESE,122,5.0,6.0,83,-99.99,,,-99.99,,2013-02-21 04:41:00,
2013-02-20 20:51:00,35.0,30.0,-100.00,ESE,111,7.0,8.0,83,-99.99,,,-99.99,,2013-02-21 04:51:00,
2013-02-20 21:02:00,35.0,30.0,-100.00,ESE,111,7.0,8.0,83,-99.99,,,-99.99,,2013-02-21 05:02:00,
2013-02-20 21:12:00,35.0,30.0,-100.00,SE,125,7.0,8.0,82,-99.99,,,-99.99,,2013-02-21 05:12:00,
2013-02-20 21:21:00,36.0,30.0,-100.00,ESE,119,6.0,8.0,80,-99.99,,,-99.99,,2013-02-21 05:21:00,
2013-02-20 21:32:00,37.0,28.0,-100.00,SE,128,3.0,4.0,69,-99.99,,,-99.99,,2013-02-21 05:32:00,
2013-02-20 21:42:00,37.0,28.0,-100.00,SE,128,3.0,4.0,69,-99.99,,,-99.99,,2013-02-21 05:42:00,
2013-02-20 21:52:00,36.0,26.0,-100.00,ESE,114,5.0,6.0,67,-99.99,,,-99.99,,2013-02-21 05:52:00,
2013-02-20 22:01:00,36.0,26.0,-100.00,ESE,114,5.0,6.0,67,-99.99,,,-99.99,,2013-02-21 06:01:00,
2013-02-20 22:11:00,38.0,25.0,-100.00,SE,131,4.0,6.0,60,-99.99,,,-99.99,,2013-02-21 06:11:00,
2013-02-20 22:21:00,38.0,25.0,-100.00,SE,131,4.0,6.0,60,-99.99,,,-99.99,,2013-02-21 06:21:00,
2013-02-20 22:31:00,37.0,24.0,-100.00,SE,145,2.0,3.0,59,-99.99,,,-99.99,,2013-02-21 06:31:00,
2013-02-20 22:41:00,37.0,24.0,-100.00,SE,145,2.0,3.0,59,-99.99,,,-99.99,,2013-02-21 06:41:00,
2013-02-20 22:51:00,36.0,24.0,-100.00,SW,221,1.0,2.0,62,-99.99,,,-99.99,,2013-02-21 06:51:00,
2013-02-20 23:01:00,36.0,26.0,-100.00,East,100,1.0,3.0,66,-99.99,,,-99.99,,2013-02-21 07:01:00,
2013-02-20 23:11:00,37.0,25.0,-100.00,East,86,2.0,2.0,62,-99.99,,,-99.99,,2013-02-21 07:11:00,
2013-02-20 23:21:00,37.0,25.0,-100.00,North,352,1.0,2.0,61,-99.99,,,-99.99,,2013-02-21 07:21:00,
2013-02-20 23:31:00,36.0,25.0,-100.00,NE,42,2.0,3.0,63,-99.99,,,-99.99,,2013-02-21 07:31:00,
2013-02-20 23:41:00,36.0,25.0,-100.00,ENE,78,1.0,2.0,65,-99.99,,,-99.99,,2013-02-21 07:41:00,
2013-02-20 23:52:00,36.0,25.0,-100.00,ESE,108,1.0,3.0,65,-99.99,,,-99.99,,2013-02-21 07:52:00,